createdAt,value
2023-04-09T00:01:22.594Z,36.08
2023-04-09T00:03:49.350Z,36.24
2023-04-09T00:06:16.482Z,36.29
2023-04-09T00:08:43.098Z,36.25
2023-04-09T00:11:09.662Z,36.22
2023-04-09T00:13:39.591Z,36.23
2023-04-09T00:16:07.518Z,36.26
2023-04-09T00:18:34.160Z,36.24
2023-04-09T00:21:00.654Z,36.22
2023-04-09T00:23:27.239Z,36.17
2023-04-09T00:25:53.746Z,36.17
2023-04-09T00:28:20.219Z,36.14
2023-04-09T00:30:46.735Z,36.30
2023-04-09T00:33:13.275Z,36.21
2023-04-09T00:35:39.866Z,36.26
2023-04-09T00:38:06.372Z,36.08
2023-04-09T00:40:33.030Z,36.14
2023-04-09T00:42:59.538Z,36.15
2023-04-09T00:45:26.133Z,36.14
2023-04-09T00:47:53.452Z,36.17
2023-04-09T00:50:20.461Z,36.19
2023-04-09T00:52:47.210Z,36.18
2023-04-09T00:55:14.427Z,36.23
2023-04-09T00:57:40.917Z,36.14
2023-04-09T01:00:08.275Z,36.19
2023-04-09T01:02:35.249Z,36.21
2023-04-09T01:05:02.072Z,36.15
2023-04-09T01:07:40.432Z,36.17
2023-04-09T01:10:51.258Z,36.16
2023-04-09T01:13:28.336Z,36.16
2023-04-09T01:15:58.538Z,36.23
2023-04-09T01:18:31.435Z,36.11
2023-04-09T01:21:06.063Z,36.22
2023-04-09T01:23:52.898Z,36.09
2023-04-09T01:26:57.248Z,36.13
2023-04-09T01:29:25.809Z,36.22
2023-04-09T01:31:54.345Z,36.17
2023-04-09T01:34:22.140Z,36.09
2023-04-09T01:36:58.200Z,36.13
2023-04-09T01:39:25.581Z,36.08
2023-04-09T01:41:53.537Z,36.15
2023-04-09T01:44:20.769Z,36.18
2023-04-09T01:46:48.601Z,36.11
2023-04-09T01:49:16.106Z,36.19
2023-04-09T01:51:43.425Z,36.07
2023-04-09T01:54:09.965Z,36.20
2023-04-09T01:56:46.552Z,36.08
2023-04-09T01:59:13.649Z,36.16
2023-04-09T02:01:50.061Z,36.14
2023-04-09T02:04:24.230Z,36.13
2023-04-09T02:07:14.300Z,36.04
2023-04-09T02:09:42.113Z,36.13
2023-04-09T02:12:13.563Z,36.22
2023-04-09T02:14:41.258Z,35.96
2023-04-09T02:17:08.130Z,36.10
2023-04-09T02:19:45.601Z,36.05
2023-04-09T02:22:12.996Z,36.08
2023-04-09T02:24:40.576Z,36.23
2023-04-09T02:27:07.987Z,36.13
2023-04-09T02:29:34.567Z,36.11
2023-04-09T02:32:01.247Z,36.08
2023-04-09T02:34:28.440Z,36.01
2023-04-09T02:36:54.893Z,35.97
2023-04-09T02:39:21.588Z,36.02
2023-04-09T02:41:48.078Z,36.10
2023-04-09T02:44:14.589Z,36.01
2023-04-09T02:46:42.000Z,36.07
2023-04-09T02:49:08.592Z,36.04
2023-04-09T02:51:36.043Z,36.04
2023-04-09T02:54:03.495Z,36.13
2023-04-09T02:56:30.007Z,35.95
2023-04-09T02:58:56.545Z,36.03
2023-04-09T03:01:23.183Z,36.02
2023-04-09T03:03:50.149Z,36.11
2023-04-09T03:06:18.385Z,36.33
2023-04-09T03:08:45.033Z,36.17
2023-04-09T03:11:11.541Z,36.23
2023-04-09T03:13:38.028Z,36.23
2023-04-09T03:16:04.790Z,36.13
2023-04-09T03:18:31.454Z,36.12
2023-04-09T03:20:57.893Z,36.25
2023-04-09T03:23:24.368Z,36.29
2023-04-09T03:26:01.165Z,36.17
2023-04-09T03:28:27.647Z,36.15
2023-04-09T03:30:54.184Z,36.07
2023-04-09T03:33:20.766Z,36.10
2023-04-09T03:35:47.405Z,36.12
2023-04-09T03:38:14.636Z,36.15
2023-04-09T03:40:42.644Z,36.15
2023-04-09T03:43:09.151Z,36.34
2023-04-09T03:45:35.887Z,36.19
2023-04-09T03:48:02.509Z,36.22
2023-04-09T03:50:29.093Z,36.32
2023-04-09T03:52:55.772Z,36.33
2023-04-09T03:55:22.384Z,36.31
2023-04-09T03:57:49.020Z,36.25
2023-04-09T04:00:15.663Z,36.39
2023-04-09T04:02:42.449Z,36.35
2023-04-09T04:05:09.216Z,36.34
2023-04-09T04:07:36.999Z,36.33
2023-04-09T04:10:05.778Z,36.43
2023-04-09T04:12:32.877Z,36.33
2023-04-09T04:14:59.392Z,36.47
2023-04-09T04:17:25.927Z,36.40
2023-04-09T04:19:52.428Z,36.40
2023-04-09T04:22:18.931Z,36.52
2023-04-09T04:24:45.496Z,36.58
2023-04-09T04:27:12.004Z,36.55
2023-04-09T04:29:38.922Z,36.56
2023-04-09T04:32:05.879Z,36.49
2023-04-09T04:34:32.480Z,36.50
2023-04-09T04:36:58.967Z,36.72
2023-04-09T04:39:25.735Z,36.62
2023-04-09T04:41:52.363Z,36.59
2023-04-09T04:44:18.882Z,36.66
2023-04-09T04:46:45.457Z,36.75
2023-04-09T04:49:11.927Z,36.63
2023-04-09T04:51:38.454Z,36.62
2023-04-09T04:54:04.955Z,36.73
2023-04-09T04:56:31.450Z,36.75
2023-04-09T04:58:57.963Z,36.75
2023-04-09T05:01:24.520Z,36.86
2023-04-09T05:03:51.187Z,36.74
2023-04-09T05:06:17.803Z,36.81
2023-04-09T05:08:44.364Z,36.77
2023-04-09T05:11:16.264Z,36.88
2023-04-09T05:13:42.759Z,36.87
2023-04-09T05:16:16.606Z,36.76
2023-04-09T05:18:43.136Z,36.76
2023-04-09T05:21:09.754Z,36.83
2023-04-09T05:23:36.431Z,36.77
2023-04-09T05:26:03.088Z,36.86
2023-04-09T05:28:29.817Z,36.69
2023-04-09T05:30:56.464Z,36.86
2023-04-09T05:33:22.990Z,36.83
2023-04-09T05:35:49.510Z,36.71
2023-04-09T05:38:16.508Z,36.92
2023-04-09T05:40:44.722Z,36.75
2023-04-09T05:43:11.771Z,36.86
2023-04-09T05:45:38.273Z,36.86
2023-04-09T05:48:05.112Z,36.78
2023-04-09T05:50:36.006Z,36.75
2023-04-09T05:53:07.608Z,36.78
2023-04-09T05:55:34.200Z,36.81
2023-04-09T05:58:00.881Z,36.83
2023-04-09T06:00:27.407Z,37.07
2023-04-09T06:02:53.974Z,37.21
2023-04-09T06:05:20.533Z,37.35
2023-04-09T06:07:47.195Z,37.72
2023-04-09T06:10:13.730Z,37.78
2023-04-09T06:12:40.262Z,37.44
2023-04-09T06:15:07.259Z,37.37
2023-04-09T06:17:33.787Z,37.37
2023-04-09T06:20:00.528Z,37.50
2023-04-09T06:22:27.021Z,37.51
2023-04-09T06:24:53.498Z,37.50
2023-04-09T06:27:22.049Z,37.79
2023-04-09T06:29:48.620Z,37.99
2023-04-09T06:32:15.335Z,38.08
2023-04-09T06:34:41.845Z,38.27
2023-04-09T06:37:08.327Z,38.35
2023-04-09T06:39:34.844Z,38.38
2023-04-09T06:42:01.371Z,38.24
2023-04-09T06:44:27.883Z,38.17
2023-04-09T06:46:54.386Z,38.02
2023-04-09T06:49:21.062Z,37.92
2023-04-09T06:51:47.784Z,37.86
2023-04-09T06:54:14.219Z,37.92
2023-04-09T06:56:41.077Z,37.91
2023-04-09T06:59:07.559Z,37.96
2023-04-09T07:01:35.660Z,37.77
2023-04-09T07:04:02.501Z,37.83
2023-04-09T07:06:29.397Z,37.91
2023-04-09T07:08:56.204Z,37.86
2023-04-09T07:11:22.820Z,37.75
2023-04-09T07:13:49.556Z,37.80
2023-04-09T07:16:16.203Z,37.88
2023-04-09T07:18:42.826Z,37.94
2023-04-09T07:21:09.330Z,37.81
2023-04-09T07:23:37.138Z,37.94
2023-04-09T07:26:05.355Z,38.07
2023-04-09T07:28:32.310Z,38.05
2023-04-09T07:31:01.281Z,37.84
2023-04-09T07:33:27.783Z,38.11
2023-04-09T07:35:54.911Z,38.25
2023-04-09T07:38:22.544Z,38.07
2023-04-09T07:40:49.120Z,38.26
2023-04-09T07:43:15.832Z,38.23
2023-04-09T07:45:42.438Z,38.38
2023-04-09T07:48:09.282Z,38.19
2023-04-09T07:50:36.512Z,38.18
2023-04-09T07:53:03.090Z,38.19
2023-04-09T07:55:29.548Z,38.72
2023-04-09T07:57:56.084Z,38.90
2023-04-09T08:00:22.643Z,38.42
2023-04-09T08:02:49.352Z,38.41
2023-04-09T08:05:16.118Z,38.34
2023-04-09T08:07:42.699Z,38.21
2023-04-09T08:10:14.004Z,38.17
2023-04-09T08:12:41.088Z,38.25
2023-04-09T08:15:08.289Z,38.11
2023-04-09T08:17:36.927Z,38.17
2023-04-09T08:20:04.783Z,38.12
2023-04-09T08:22:31.986Z,38.19
2023-04-09T08:25:00.261Z,38.21
2023-04-09T08:27:29.148Z,41.20
2023-04-09T08:29:55.771Z,43.03
2023-04-09T08:32:22.280Z,43.86
2023-04-09T08:34:48.848Z,44.01
2023-04-09T08:37:16.602Z,43.47
2023-04-09T08:39:43.178Z,46.56
2023-04-09T08:42:12.581Z,47.21
2023-04-09T08:44:39.188Z,48.60
2023-04-09T08:47:12.573Z,48.59
2023-04-09T08:49:40.945Z,49.06
2023-04-09T08:52:08.343Z,49.13
2023-04-09T08:54:35.427Z,48.79
2023-04-09T08:57:05.254Z,49.15
2023-04-09T08:59:36.797Z,48.95
2023-04-09T09:02:11.689Z,48.38
2023-04-09T09:04:46.634Z,47.98
2023-04-09T09:07:13.698Z,47.97
2023-04-09T09:09:53.972Z,47.36
2023-04-09T09:12:43.183Z,47.14
2023-04-09T09:15:27.358Z,46.76
2023-04-09T09:17:56.055Z,46.62
2023-04-09T09:20:23.521Z,46.31
2023-04-09T09:22:55.652Z,46.06
2023-04-09T09:25:26.278Z,45.80
2023-04-09T09:27:53.852Z,45.54
2023-04-09T09:30:25.340Z,45.26
2023-04-09T09:32:53.825Z,44.86
2023-04-09T09:35:20.646Z,44.61
2023-04-09T09:37:47.180Z,44.42
2023-04-09T09:40:27.808Z,44.17
2023-04-09T09:42:56.612Z,44.00
2023-04-09T09:45:24.053Z,43.80
2023-04-09T09:47:51.537Z,43.65
2023-04-09T09:50:18.490Z,43.37
2023-04-09T09:52:46.643Z,43.17
2023-04-09T09:55:17.951Z,43.02
2023-04-09T09:57:47.532Z,42.74
2023-04-09T10:00:15.294Z,42.51
2023-04-09T10:02:51.243Z,42.42
2023-04-09T10:05:17.864Z,42.15
2023-04-09T10:07:45.018Z,42.19
2023-04-09T10:10:11.596Z,41.87
2023-04-09T10:12:41.719Z,41.76
2023-04-09T10:15:09.452Z,41.68
2023-04-09T10:17:36.874Z,41.61
2023-04-09T10:20:26.088Z,41.30
2023-04-09T10:22:53.670Z,41.19
2023-04-09T10:25:20.774Z,41.14
2023-04-09T10:28:00.200Z,41.15
2023-04-09T10:30:33.430Z,41.04
2023-04-09T10:33:29.564Z,40.95
2023-04-09T10:36:00.824Z,40.80
2023-04-09T10:38:47.014Z,40.66
2023-04-09T10:41:29.427Z,40.67
2023-04-09T10:43:57.779Z,40.71
2023-04-09T10:46:34.493Z,40.68
2023-04-09T10:49:16.858Z,40.57
2023-04-09T10:51:50.954Z,40.93
2023-04-09T10:54:35.620Z,41.20
2023-04-09T10:57:07.977Z,41.42
2023-04-09T10:59:36.271Z,41.36
2023-04-09T11:02:07.016Z,41.29
2023-04-09T11:05:10.828Z,41.06
2023-04-09T11:07:43.857Z,41.11
2023-04-09T11:10:10.376Z,40.92
2023-04-09T11:12:36.905Z,40.77
2023-04-09T11:15:04.873Z,40.81
2023-04-09T11:17:36.656Z,40.67
2023-04-09T11:20:03.823Z,40.70
2023-04-09T11:22:30.631Z,40.55
2023-04-09T11:24:57.164Z,40.59
2023-04-09T11:27:23.917Z,40.62
2023-04-09T11:29:58.424Z,40.45
2023-04-09T11:32:30.367Z,40.60
2023-04-09T11:34:57.888Z,40.57
2023-04-09T11:37:24.993Z,40.52
2023-04-09T11:39:56.034Z,40.51
2023-04-09T11:42:25.660Z,40.37
2023-04-09T11:44:53.093Z,40.46
2023-04-09T11:47:21.069Z,40.57
2023-04-09T11:49:47.815Z,40.46
2023-04-09T11:52:16.674Z,40.45
2023-04-09T11:54:49.273Z,40.32
2023-04-09T11:57:16.134Z,40.29
2023-04-09T11:59:42.857Z,40.30
2023-04-09T12:02:09.480Z,40.13
2023-04-09T12:04:36.317Z,40.13
2023-04-09T12:07:03.098Z,40.11
2023-04-09T12:09:29.751Z,40.43
2023-04-09T12:11:56.623Z,40.31
2023-04-09T12:14:23.238Z,40.25
2023-04-09T12:16:52.974Z,40.04
2023-04-09T12:19:20.493Z,39.95
2023-04-09T12:21:47.969Z,39.86
2023-04-09T12:24:15.381Z,39.93
2023-04-09T12:26:41.901Z,39.84
2023-04-09T12:29:08.712Z,39.86
2023-04-09T12:31:36.138Z,39.73
2023-04-09T12:34:02.858Z,39.71
2023-04-09T12:36:29.854Z,39.66
2023-04-09T12:38:56.374Z,39.46
2023-04-09T12:41:24.152Z,39.33
2023-04-09T12:43:51.446Z,39.30
2023-04-09T12:46:19.773Z,39.40
2023-04-09T12:48:46.974Z,39.33
2023-04-09T12:51:14.219Z,39.23
2023-04-09T12:53:40.931Z,39.35
2023-04-09T12:56:08.004Z,39.39
2023-04-09T12:58:35.708Z,39.43
2023-04-09T13:01:04.281Z,39.42
2023-04-09T13:03:31.193Z,39.40
2023-04-09T13:05:58.024Z,39.29
2023-04-09T13:08:24.592Z,39.41
2023-04-09T13:10:51.204Z,39.32
2023-04-09T13:13:17.782Z,39.60
2023-04-09T13:15:45.066Z,39.45
2023-04-09T13:18:14.794Z,39.54
2023-04-09T13:20:41.412Z,39.46
2023-04-09T13:23:07.906Z,39.52
2023-04-09T13:25:34.466Z,39.53
2023-04-09T13:28:01.001Z,39.51
2023-04-09T13:30:27.562Z,39.49
2023-04-09T13:32:54.118Z,39.55
2023-04-09T13:35:20.714Z,39.50
2023-04-09T13:37:47.201Z,39.42
2023-04-09T13:40:13.793Z,39.61
2023-04-09T13:42:40.338Z,39.59
2023-04-09T13:45:07.172Z,39.58
2023-04-09T13:47:33.740Z,39.66
2023-04-09T13:50:00.507Z,39.67
2023-04-09T13:52:29.646Z,39.91
2023-04-09T13:54:56.643Z,39.94
2023-04-09T13:57:23.271Z,40.07
2023-04-09T13:59:49.814Z,40.23
2023-04-09T14:02:18.375Z,40.26
2023-04-09T14:04:45.815Z,40.27
2023-04-09T14:07:12.379Z,40.27
2023-04-09T14:09:38.924Z,40.23
2023-04-09T14:12:05.699Z,40.30
2023-04-09T14:14:32.638Z,40.47
2023-04-09T14:16:59.204Z,40.38
2023-04-09T14:19:25.865Z,40.43
2023-04-09T14:21:53.345Z,40.49
2023-04-09T14:24:22.979Z,40.30
2023-04-09T14:26:52.289Z,40.35
2023-04-09T14:29:19.528Z,39.94
2023-04-09T14:31:47.320Z,40.25
2023-04-09T14:34:14.145Z,40.22
2023-04-09T14:36:40.761Z,40.16
2023-04-09T14:39:07.379Z,40.20
2023-04-09T14:41:34.365Z,40.18
2023-04-09T14:44:01.067Z,40.21
2023-04-09T14:46:27.698Z,40.16
2023-04-09T14:48:54.739Z,40.24
2023-04-09T14:51:21.506Z,40.34
2023-04-09T14:53:48.526Z,40.48
2023-04-09T14:56:15.400Z,40.54
2023-04-09T14:58:41.891Z,40.65
2023-04-09T15:01:08.433Z,40.62
2023-04-09T15:03:35.274Z,40.60
2023-04-09T15:06:01.979Z,40.87
2023-04-09T15:08:28.615Z,40.94
2023-04-09T15:10:55.228Z,40.91
2023-04-09T15:13:21.726Z,40.91
2023-04-09T15:15:48.272Z,40.83
2023-04-09T15:18:15.087Z,40.90
2023-04-09T15:20:43.306Z,40.83
2023-04-09T15:23:11.019Z,41.00
2023-04-09T15:25:37.853Z,40.93
2023-04-09T15:28:04.646Z,40.96
2023-04-09T15:30:31.319Z,41.05
2023-04-09T15:32:58.085Z,40.87
2023-04-09T15:35:29.105Z,40.95
2023-04-09T15:37:59.246Z,41.01
2023-04-09T15:40:25.921Z,40.90
2023-04-09T15:42:52.515Z,40.94
2023-04-09T15:45:19.196Z,40.94
2023-04-09T15:47:46.466Z,41.05
2023-04-09T15:50:14.213Z,41.17
2023-04-09T15:52:40.781Z,40.85
2023-04-09T15:55:07.636Z,40.86
2023-04-09T15:57:34.147Z,40.95
2023-04-09T16:00:00.708Z,40.85
2023-04-09T16:02:27.344Z,40.93
2023-04-09T16:04:54.045Z,40.76
2023-04-09T16:07:20.770Z,40.79
2023-04-09T16:09:47.319Z,40.82
2023-04-09T16:12:13.868Z,40.82
2023-04-09T16:14:40.938Z,40.68
2023-04-09T16:17:07.645Z,40.83
2023-04-09T16:19:34.279Z,40.66
2023-04-09T16:22:01.687Z,40.83
2023-04-09T16:24:28.793Z,40.71
2023-04-09T16:26:56.394Z,40.66
2023-04-09T16:29:24.275Z,40.60
2023-04-09T16:31:50.807Z,40.64
2023-04-09T16:34:17.375Z,40.54
2023-04-09T16:36:44.691Z,40.48
2023-04-09T16:39:11.477Z,40.48
2023-04-09T16:41:38.434Z,40.45
2023-04-09T16:44:04.987Z,40.42
2023-04-09T16:46:31.660Z,40.39
2023-04-09T16:48:58.176Z,40.29
2023-04-09T16:51:24.936Z,40.31
2023-04-09T16:53:51.639Z,40.31
2023-04-09T16:56:18.258Z,40.20
2023-04-09T16:58:46.554Z,40.29
2023-04-09T17:01:13.201Z,40.20
2023-04-09T17:03:39.871Z,40.23
2023-04-09T17:06:06.987Z,40.26
2023-04-09T17:08:35.058Z,40.30
2023-04-09T17:11:02.358Z,40.27
2023-04-09T17:13:34.250Z,40.46
2023-04-09T17:16:01.202Z,40.20
2023-04-09T17:18:27.862Z,40.19
2023-04-09T17:20:54.661Z,40.16
2023-04-09T17:23:22.918Z,40.12
2023-04-09T17:25:49.589Z,40.16
2023-04-09T17:28:18.631Z,40.02
2023-04-09T17:30:45.559Z,39.93
2023-04-09T17:33:12.469Z,39.95
2023-04-09T17:35:39.435Z,39.89
2023-04-09T17:38:06.187Z,39.84
2023-04-09T17:40:32.748Z,39.94
2023-04-09T17:43:00.067Z,39.73
2023-04-09T17:45:26.769Z,39.88
2023-04-09T17:47:53.281Z,39.67
2023-04-09T17:50:20.000Z,39.76
2023-04-09T17:52:46.850Z,39.77
2023-04-09T17:55:13.947Z,39.68
2023-04-09T17:57:41.633Z,39.69
2023-04-09T18:00:09.733Z,39.67
2023-04-09T18:02:36.770Z,39.66
2023-04-09T18:05:07.240Z,39.57
2023-04-09T18:07:34.144Z,39.58
2023-04-09T18:10:02.403Z,39.57
2023-04-09T18:12:29.204Z,39.69
2023-04-09T18:14:55.948Z,39.78
2023-04-09T18:17:22.802Z,39.72
2023-04-09T18:19:49.562Z,39.71
2023-04-09T18:22:16.601Z,39.73
2023-04-09T18:24:43.201Z,39.70
2023-04-09T18:27:09.759Z,39.61
2023-04-09T18:29:36.363Z,39.61
2023-04-09T18:32:02.928Z,39.64
2023-04-09T18:34:29.651Z,39.66
2023-04-09T18:36:56.203Z,39.50
2023-04-09T18:39:23.150Z,39.49
2023-04-09T18:41:49.834Z,39.28
2023-04-09T18:44:16.581Z,39.32
2023-04-09T18:46:43.224Z,39.20
2023-04-09T18:49:10.080Z,39.18
2023-04-09T18:51:36.708Z,39.12
2023-04-09T18:54:03.288Z,39.13
2023-04-09T18:56:29.904Z,39.10
2023-04-09T18:58:56.706Z,39.08
2023-04-09T19:01:23.428Z,39.01
2023-04-09T19:03:50.203Z,38.76
2023-04-09T19:06:19.202Z,38.93
2023-04-09T19:08:46.904Z,38.82
2023-04-09T19:11:14.328Z,38.72
2023-04-09T19:13:40.941Z,38.83
2023-04-09T19:16:09.375Z,38.67
2023-04-09T19:18:37.091Z,38.75
2023-04-09T19:21:04.101Z,38.71
2023-04-09T19:23:30.757Z,38.69
2023-04-09T19:25:57.633Z,38.66
2023-04-09T19:28:24.380Z,38.66
2023-04-09T19:30:52.509Z,38.54
2023-04-09T19:33:26.653Z,38.62
2023-04-09T19:35:55.332Z,38.62
2023-04-09T19:38:22.079Z,38.58
2023-04-09T19:40:48.797Z,38.58
2023-04-09T19:43:15.541Z,38.64
2023-04-09T19:45:44.838Z,38.54
2023-04-09T19:48:12.730Z,38.82
2023-04-09T19:50:46.472Z,38.53
2023-04-09T19:53:13.156Z,38.54
2023-04-09T19:55:39.712Z,38.48
2023-04-09T19:58:06.968Z,38.53
2023-04-09T20:00:34.549Z,38.59
2023-04-09T20:03:01.678Z,38.62
2023-04-09T20:05:29.163Z,38.63
2023-04-09T20:07:55.763Z,38.61
2023-04-09T20:10:22.236Z,38.47
2023-04-09T20:12:49.855Z,38.48
2023-04-09T20:15:19.839Z,38.38
2023-04-09T20:17:50.854Z,38.47
2023-04-09T20:20:20.848Z,38.56
2023-04-09T20:22:55.488Z,38.54
2023-04-09T20:25:23.702Z,38.51
2023-04-09T20:27:52.850Z,38.62
2023-04-09T20:30:19.867Z,38.50
2023-04-09T20:32:47.484Z,38.54
2023-04-09T20:35:14.619Z,38.74
2023-04-09T20:37:41.233Z,38.56
2023-04-09T20:40:08.275Z,38.44
2023-04-09T20:42:34.750Z,38.41
2023-04-09T20:45:01.943Z,38.49
2023-04-09T20:47:28.853Z,38.45
2023-04-09T20:49:59.672Z,38.43
2023-04-09T20:52:28.477Z,38.56
2023-04-09T20:54:56.886Z,38.50
2023-04-09T20:57:23.973Z,38.34
2023-04-09T20:59:50.888Z,38.32
2023-04-09T21:02:17.614Z,38.45
2023-04-09T21:04:44.605Z,38.52
2023-04-09T21:07:11.522Z,38.52
2023-04-09T21:09:38.367Z,38.42
2023-04-09T21:12:05.097Z,38.36
2023-04-09T21:14:31.823Z,38.34
2023-04-09T21:16:58.451Z,38.43
2023-04-09T21:19:25.064Z,38.23
2023-04-09T21:21:51.873Z,38.27
2023-04-09T21:24:18.518Z,38.35
2023-04-09T21:26:51.778Z,38.30
2023-04-09T21:29:20.683Z,38.40
2023-04-09T21:31:48.159Z,38.30
2023-04-09T21:34:14.698Z,38.33
2023-04-09T21:36:41.314Z,38.25
2023-04-09T21:39:07.920Z,38.20
2023-04-09T21:41:34.562Z,38.31
2023-04-09T21:44:07.839Z,38.17
2023-04-09T21:46:36.878Z,38.22
2023-04-09T21:49:04.310Z,38.38
2023-04-09T21:51:31.565Z,38.19
2023-04-09T21:54:06.210Z,38.20
2023-04-09T21:56:33.985Z,38.30
2023-04-09T21:59:01.312Z,38.43
2023-04-09T22:01:30.574Z,38.26
2023-04-09T22:04:01.920Z,38.28
2023-04-09T22:06:29.056Z,38.23
2023-04-09T22:08:57.813Z,38.12
2023-04-09T22:11:27.475Z,38.07
2023-04-09T22:13:58.269Z,38.17
2023-04-09T22:16:25.989Z,38.13
2023-04-09T22:18:53.965Z,38.09
2023-04-09T22:21:21.046Z,38.17
2023-04-09T22:23:47.689Z,38.10
2023-04-09T22:26:14.333Z,38.04
2023-04-09T22:28:40.884Z,38.22
2023-04-09T22:31:07.666Z,38.07
2023-04-09T22:33:34.345Z,37.97
2023-04-09T22:36:01.221Z,38.11
2023-04-09T22:38:27.827Z,37.90
2023-04-09T22:40:54.548Z,37.90
2023-04-09T22:43:21.290Z,37.92
2023-04-09T22:45:52.747Z,37.91
2023-04-09T22:48:20.179Z,37.98
2023-04-09T22:50:47.696Z,37.95
2023-04-09T22:53:20.771Z,37.97
2023-04-09T22:55:51.271Z,37.92
2023-04-09T22:58:17.992Z,37.97
2023-04-09T23:00:44.544Z,37.96
2023-04-09T23:03:11.309Z,37.98
2023-04-09T23:05:38.187Z,37.92
2023-04-09T23:08:05.534Z,38.01
2023-04-09T23:10:33.429Z,38.12
2023-04-09T23:13:00.005Z,38.10
2023-04-09T23:15:27.268Z,38.02
2023-04-09T23:17:54.137Z,37.94
2023-04-09T23:20:20.719Z,38.00
2023-04-09T23:22:48.001Z,37.89
2023-04-09T23:25:18.183Z,37.98
2023-04-09T23:27:44.947Z,38.10
2023-04-09T23:30:16.512Z,38.01
2023-04-09T23:32:44.822Z,38.10
2023-04-09T23:35:12.144Z,37.95
2023-04-09T23:37:39.574Z,38.03
2023-04-09T23:40:07.402Z,37.91
2023-04-09T23:42:34.064Z,37.90
2023-04-09T23:45:04.874Z,37.98
2023-04-09T23:47:33.649Z,37.82
2023-04-09T23:50:07.972Z,37.82
2023-04-09T23:52:36.443Z,37.99
2023-04-09T23:55:04.486Z,37.79
2023-04-09T23:57:31.188Z,37.81
2023-04-09T23:59:57.772Z,37.86
